Time;durP1;ratioP1;P1;durP2;ratioP2;P2;SDS_P1;SDS_P2;PMS_P1;PMS_P2;Temp;Humidity;BMP_temperature;BMP_pressure;BME280_temperature;BME280_humidity;BME280_pressure;Samples;Min_cycle;Max_cycle;Signal;HPM_P1;HPM_P2
2022/12/29 00:01:31;;;;;;;1.77;1.25;;;;;;;;;;5093054;28;20625;-61
2022/12/29 00:03:56;;;;;;;1.13;1.02;;;;;;;;;;5108039;28;20100;-60
2022/12/29 00:06:22;;;;;;;1.10;1.00;;;;;;;;;;5105536;28;20153;-61
2022/12/29 00:08:47;;;;;;;2.67;1.20;;;;;;;;;;5110587;28;20035;-60
2022/12/29 00:11:19;;;;;;;1.85;1.10;;;;;;;;;;5105556;28;20450;-61
2022/12/29 00:16:29;;;;;;;3.13;1.33;;;;;;;;;;5091693;28;20051;-60
2022/12/29 00:18:55;;;;;;;3.55;2.03;;;;;;;;;;5095031;28;20594;-60
2022/12/29 00:35:08;;;;;;;1.10;1.00;;;;;;;;;;5112242;28;20129;-57
2022/12/29 00:45:55;;;;;;;2.08;1.45;;;;;;;;;;5092200;28;20113;-59
2022/12/29 00:51:05;;;;;;;2.47;1.48;;;;;;;;;;5097302;28;20453;-58
2022/12/29 00:53:30;;;;;;;1.90;1.40;;;;;;;;;;5090209;28;20111;-58
2022/12/29 00:55:55;;;;;;;1.95;1.50;;;;;;;;;;5091207;28;20051;-58
2022/12/29 00:58:21;;;;;;;3.33;1.45;;;;;;;;;;5090680;28;20044;-58
2022/12/29 01:00:46;;;;;;;2.75;1.63;;;;;;;;;;5092654;28;20031;-58
2022/12/29 01:03:11;;;;;;;1.60;1.50;;;;;;;;;;5102270;28;20036;-59
2022/12/29 01:05:37;;;;;;;1.65;1.50;;;;;;;;;;5096185;28;20293;-59
2022/12/29 01:08:02;;;;;;;3.28;1.50;;;;;;;;;;5105486;28;20449;-58
2022/12/29 01:10:28;;;;;;;4.80;1.48;;;;;;;;;;5089636;28;20028;-59
2022/12/29 01:12:54;;;;;;;1.40;1.10;;;;;;;;;;5091794;28;20490;-57
2022/12/29 01:15:19;;;;;;;1.70;1.20;;;;;;;;;;5095092;28;20111;-61
2022/12/29 01:17:45;;;;;;;1.83;1.40;;;;;;;;;;5105434;28;20053;-59
2022/12/29 01:20:12;;;;;;;1.40;1.10;;;;;;;;;;5097937;28;20036;-58
2022/12/29 01:22:38;;;;;;;1.55;1.23;;;;;;;;;;5091497;28;20058;-58
2022/12/29 01:25:05;;;;;;;2.03;1.50;;;;;;;;;;5091697;28;20032;-58
2022/12/29 01:27:30;;;;;;;1.77;1.50;;;;;;;;;;5106421;28;20107;-55
2022/12/29 01:29:56;;;;;;;1.52;1.30;;;;;;;;;;5103121;28;20115;-59
2022/12/29 01:32:21;;;;;;;1.30;1.20;;;;;;;;;;5110809;28;20416;-58
2022/12/29 01:34:47;;;;;;;1.48;1.00;;;;;;;;;;5106005;28;20037;-58
2022/12/29 01:37:12;;;;;;;1.45;1.02;;;;;;;;;;5094920;28;20074;-60
2022/12/29 01:39:37;;;;;;;1.20;1.10;;;;;;;;;;5090185;28;20571;-58
2022/12/29 01:42:03;;;;;;;1.00;0.90;;;;;;;;;;5114729;28;20460;-59
2022/12/29 01:44:50;;;;;;;1.42;1.00;;;;;;;;;;5106750;28;20106;-59
2022/12/29 01:47:24;;;;;;;1.48;1.10;;;;;;;;;;5101433;28;20115;-60
2022/12/29 01:49:52;;;;;;;0.95;0.90;;;;;;;;;;5094959;28;20408;-60
2022/12/29 01:52:17;;;;;;;1.45;1.00;;;;;;;;;;5109931;28;20072;-61
2022/12/29 01:54:49;;;;;;;1.52;1.00;;;;;;;;;;5114451;28;20459;-60
2022/12/29 01:57:21;;;;;;;1.83;1.00;;;;;;;;;;5104881;28;20040;-59
2022/12/29 01:59:58;;;;;;;1.10;1.00;;;;;;;;;;5109597;28;20149;-60
2022/12/29 02:02:24;;;;;;;2.83;0.85;;;;;;;;;;5088215;28;20028;-60
2022/12/29 02:04:53;;;;;;;1.17;0.90;;;;;;;;;;5095481;28;20028;-59
2022/12/29 02:07:22;;;;;;;2.08;0.90;;;;;;;;;;5092633;28;20125;-60
2022/12/29 02:09:49;;;;;;;1.17;0.68;;;;;;;;;;5103629;28;20031;-60
2022/12/29 02:12:18;;;;;;;0.70;0.70;;;;;;;;;;5080948;28;20101;-60
2022/12/29 02:14:43;;;;;;;0.80;0.80;;;;;;;;;;5094171;28;20032;-59
2022/12/29 02:17:26;;;;;;;0.80;0.70;;;;;;;;;;5094227;28;20232;-61
2022/12/29 02:20:16;;;;;;;0.80;0.70;;;;;;;;;;5107631;28;20697;-60
2022/12/29 02:23:01;;;;;;;1.08;0.80;;;;;;;;;;5093643;28;20028;-61
2022/12/29 02:25:44;;;;;;;0.80;0.80;;;;;;;;;;5094351;28;20031;-61
2022/12/29 02:28:59;;;;;;;0.80;0.80;;;;;;;;;;5114359;28;20035;-61
2022/12/29 02:31:30;;;;;;;1.13;0.75;;;;;;;;;;5080531;28;20036;-61
2022/12/29 02:34:39;;;;;;;0.60;0.60;;;;;;;;;;5097209;28;20036;-61
2022/12/29 02:37:37;;;;;;;2.72;0.80;;;;;;;;;;5101354;28;20108;-60
2022/12/29 02:40:02;;;;;;;2.72;1.05;;;;;;;;;;5103186;28;20551;-61
2022/12/29 02:42:41;;;;;;;0.70;0.70;;;;;;;;;;5111581;28;20130;-61
2022/12/29 02:45:26;;;;;;;2.47;0.80;;;;;;;;;;5094699;28;20084;-61
2022/12/29 02:48:03;;;;;;;2.15;0.82;;;;;;;;;;5102227;28;20074;-61
2022/12/29 02:50:36;;;;;;;2.00;0.80;;;;;;;;;;5092519;28;20036;-60
2022/12/29 02:53:06;;;;;;;1.80;0.85;;;;;;;;;;5113786;28;20093;-61
2022/12/29 02:55:32;;;;;;;2.38;1.02;;;;;;;;;;5111280;28;20034;-62
2022/12/29 02:58:16;;;;;;;2.92;0.85;;;;;;;;;;5109537;28;20430;-61
2022/12/29 03:00:55;;;;;;;1.33;0.60;;;;;;;;;;5106969;28;20036;-61
2022/12/29 03:03:45;;;;;;;0.50;0.50;;;;;;;;;;5093014;28;20115;-62
2022/12/29 03:06:40;;;;;;;2.30;0.90;;;;;;;;;;5108745;28;20036;-61
2022/12/29 03:09:28;;;;;;;0.98;0.70;;;;;;;;;;5113442;28;20035;-60
2022/12/29 03:12:09;;;;;;;1.42;0.75;;;;;;;;;;5107963;28;20038;-58
2022/12/29 03:18:07;;;;;;;0.77;0.77;;;;;;;;;;5105058;28;20114;-58
2022/12/29 03:20:59;;;;;;;1.27;1.00;;;;;;;;;;5054026;28;20047;-59
2022/12/29 03:23:25;;;;;;;0.93;0.70;;;;;;;;;;5092327;28;20036;-61
2022/12/29 03:25:55;;;;;;;1.42;0.95;;;;;;;;;;5080561;28;20034;-57
2022/12/29 03:28:26;;;;;;;1.42;0.90;;;;;;;;;;5088467;28;20031;-57
2022/12/29 03:30:51;;;;;;;5.85;1.08;;;;;;;;;;5112160;28;20051;-58
2022/12/29 03:33:22;;;;;;;2.90;1.05;;;;;;;;;;5113128;28;20028;-56
2022/12/29 03:35:50;;;;;;;1.00;0.80;;;;;;;;;;5111634;28;20067;-53
2022/12/29 03:38:22;;;;;;;3.83;0.80;;;;;;;;;;5108541;28;20122;-53
2022/12/29 03:40:56;;;;;;;0.98;0.80;;;;;;;;;;5097438;28;20077;-55
2022/12/29 03:43:22;;;;;;;2.22;0.95;;;;;;;;;;5112847;28;20024;-56
2022/12/29 03:45:47;;;;;;;1.33;0.90;;;;;;;;;;5110686;28;20088;-57
2022/12/29 03:48:12;;;;;;;1.77;0.90;;;;;;;;;;5112768;28;20020;-54
2022/12/29 03:50:38;;;;;;;2.13;0.82;;;;;;;;;;5110042;28;20065;-55
2022/12/29 03:53:03;;;;;;;2.28;1.00;;;;;;;;;;5091950;28;20111;-54
2022/12/29 03:55:29;;;;;;;3.00;1.00;;;;;;;;;;5072432;28;20039;-52
2022/12/29 03:57:54;;;;;;;1.50;0.80;;;;;;;;;;5108816;28;20048;-55
2022/12/29 04:00:19;;;;;;;1.20;0.80;;;;;;;;;;5106750;28;20046;-53
2022/12/29 04:02:45;;;;;;;1.42;0.95;;;;;;;;;;5105026;28;20104;-55
2022/12/29 04:05:10;;;;;;;1.52;1.00;;;;;;;;;;5109735;28;20035;-53
2022/12/29 04:07:35;;;;;;;2.25;0.82;;;;;;;;;;5091290;28;20028;-56
2022/12/29 04:10:01;;;;;;;0.90;0.80;;;;;;;;;;5083275;28;20365;-57
2022/12/29 04:12:26;;;;;;;2.85;1.00;;;;;;;;;;5108943;28;20032;-58
2022/12/29 04:14:52;;;;;;;1.70;1.10;;;;;;;;;;5106209;28;20453;-57
2022/12/29 04:17:17;;;;;;;2.88;1.00;;;;;;;;;;5104921;28;20123;-56
2022/12/29 04:19:42;;;;;;;1.67;0.70;;;;;;;;;;5109389;28;20383;-57
2022/12/29 04:22:08;;;;;;;1.13;0.90;;;;;;;;;;5109562;28;20035;-55
2022/12/29 04:24:33;;;;;;;1.20;0.80;;;;;;;;;;5096264;28;20024;-56
2022/12/29 04:26:58;;;;;;;3.55;0.98;;;;;;;;;;5097671;28;20031;-54
2022/12/29 04:29:24;;;;;;;1.73;1.00;;;;;;;;;;5099979;28;20036;-52
2022/12/29 04:31:49;;;;;;;1.20;0.80;;;;;;;;;;5092030;28;20447;-53
2022/12/29 04:34:15;;;;;;;1.45;1.00;;;;;;;;;;5092617;28;20039;-52
2022/12/29 04:36:40;;;;;;;2.50;1.08;;;;;;;;;;5097157;28;20037;-54
2022/12/29 04:39:06;;;;;;;1.77;1.10;;;;;;;;;;5110791;28;20031;-53
2022/12/29 04:41:31;;;;;;;3.78;0.90;;;;;;;;;;5104251;28;20028;-55
2022/12/29 04:43:57;;;;;;;1.17;1.08;;;;;;;;;;5094314;28;20107;-55
2022/12/29 04:46:22;;;;;;;0.98;0.80;;;;;;;;;;5073089;28;20034;-55
2022/12/29 04:48:48;;;;;;;2.50;0.80;;;;;;;;;;5098850;28;20027;-54
2022/12/29 04:51:13;;;;;;;0.75;0.75;;;;;;;;;;5109566;28;20028;-56
2022/12/29 04:53:39;;;;;;;0.93;0.85;;;;;;;;;;5089451;28;20538;-55
2022/12/29 04:56:04;;;;;;;2.10;0.80;;;;;;;;;;5095690;28;20035;-57
2022/12/29 04:58:30;;;;;;;0.85;0.73;;;;;;;;;;5092200;28;20048;-60
2022/12/29 05:00:55;;;;;;;1.30;0.73;;;;;;;;;;5100727;28;20050;-56
2022/12/29 05:03:21;;;;;;;1.08;0.70;;;;;;;;;;5098290;28;20035;-55
2022/12/29 05:05:46;;;;;;;0.60;0.60;;;;;;;;;;5102965;28;20088;-55
2022/12/29 05:08:12;;;;;;;0.63;0.63;;;;;;;;;;5098897;28;20039;-52
2022/12/29 05:10:37;;;;;;;1.45;0.75;;;;;;;;;;5081800;28;20031;-54
2022/12/29 05:13:03;;;;;;;1.42;0.55;;;;;;;;;;5100917;28;21370;-55
2022/12/29 05:15:28;;;;;;;0.80;0.70;;;;;;;;;;5103856;28;20040;-59
2022/12/29 05:17:53;;;;;;;1.58;0.80;;;;;;;;;;5107281;28;20028;-54
2022/12/29 05:20:19;;;;;;;1.02;0.65;;;;;;;;;;5115395;28;20027;-54
2022/12/29 05:22:44;;;;;;;2.38;0.90;;;;;;;;;;5113297;28;20024;-52
2022/12/29 05:25:10;;;;;;;0.70;0.65;;;;;;;;;;5114581;28;20020;-56
2022/12/29 05:27:36;;;;;;;1.95;0.63;;;;;;;;;;5114542;28;20513;-54
2022/12/29 05:30:01;;;;;;;0.95;0.50;;;;;;;;;;5115533;28;20066;-52
2022/12/29 05:32:26;;;;;;;0.93;0.80;;;;;;;;;;5099571;28;20055;-56
2022/12/29 05:34:52;;;;;;;0.60;0.60;;;;;;;;;;5094676;28;20290;-58
2022/12/29 05:37:18;;;;;;;1.67;0.70;;;;;;;;;;5095028;28;20032;-53
2022/12/29 05:39:43;;;;;;;2.28;1.02;;;;;;;;;;5075871;28;20488;-56
2022/12/29 05:42:08;;;;;;;2.75;1.20;;;;;;;;;;5106788;28;20035;-54
2022/12/29 05:44:34;;;;;;;2.22;1.60;;;;;;;;;;5114404;28;20059;-58
2022/12/29 05:46:59;;;;;;;2.85;2.03;;;;;;;;;;5115254;28;20054;-54
2022/12/29 05:49:28;;;;;;;2.63;1.90;;;;;;;;;;5115105;28;20468;-57
2022/12/29 05:51:53;;;;;;;2.85;2.03;;;;;;;;;;5113936;28;20115;-55
2022/12/29 05:54:18;;;;;;;2.67;2.08;;;;;;;;;;5114936;28;20102;-53
2022/12/29 05:56:44;;;;;;;3.92;2.40;;;;;;;;;;5114444;28;20364;-54
2022/12/29 05:59:09;;;;;;;3.45;2.13;;;;;;;;;;5111570;28;20074;-54
2022/12/29 06:01:35;;;;;;;1.67;1.35;;;;;;;;;;5103487;28;20035;-58
2022/12/29 06:04:00;;;;;;;1.63;1.35;;;;;;;;;;5114936;28;20110;-54
2022/12/29 06:06:26;;;;;;;0.98;0.88;;;;;;;;;;5114919;28;20100;-55
2022/12/29 06:08:51;;;;;;;1.80;0.90;;;;;;;;;;5113787;28;20027;-55
2022/12/29 06:11:16;;;;;;;1.45;0.75;;;;;;;;;;5100055;28;20032;-53
2022/12/29 06:13:42;;;;;;;2.85;0.90;;;;;;;;;;5075330;28;20068;-56
2022/12/29 06:16:08;;;;;;;1.33;0.60;;;;;;;;;;5078810;28;20023;-57
2022/12/29 06:18:33;;;;;;;2.70;0.70;;;;;;;;;;5092809;28;20074;-58
2022/12/29 06:21:00;;;;;;;2.50;0.70;;;;;;;;;;5111869;28;20040;-55
2022/12/29 06:23:26;;;;;;;1.38;0.68;;;;;;;;;;5094648;28;20040;-54
2022/12/29 06:25:52;;;;;;;3.17;0.90;;;;;;;;;;5094488;28;20759;-54
2022/12/29 06:28:17;;;;;;;2.90;1.00;;;;;;;;;;5097601;28;20453;-55
2022/12/29 06:30:45;;;;;;;2.30;0.75;;;;;;;;;;5094381;28;20028;-54
2022/12/29 06:33:11;;;;;;;1.95;0.90;;;;;;;;;;5097930;28;20036;-56
2022/12/29 06:35:36;;;;;;;1.17;0.80;;;;;;;;;;5111161;28;20050;-59
2022/12/29 06:38:02;;;;;;;2.97;0.80;;;;;;;;;;5095937;28;20426;-55
2022/12/29 06:40:27;;;;;;;1.52;1.00;;;;;;;;;;5085818;28;20032;-54
2022/12/29 06:42:52;;;;;;;1.35;0.70;;;;;;;;;;5094504;28;20191;-53
2022/12/29 06:45:18;;;;;;;2.15;0.90;;;;;;;;;;5093758;28;20024;-56
2022/12/29 06:47:43;;;;;;;3.30;1.20;;;;;;;;;;5103550;28;20082;-56
2022/12/29 06:50:09;;;;;;;1.67;0.90;;;;;;;;;;5093556;28;20035;-57
2022/12/29 06:52:34;;;;;;;3.30;1.10;;;;;;;;;;5110390;28;20516;-59
2022/12/29 06:54:59;;;;;;;1.20;0.90;;;;;;;;;;5090720;28;20042;-58
2022/12/29 06:57:26;;;;;;;3.08;1.02;;;;;;;;;;5110987;28;20086;-54
2022/12/29 06:59:52;;;;;;;4.00;1.40;;;;;;;;;;5088061;28;20032;-63
2022/12/29 07:02:19;;;;;;;4.80;1.30;;;;;;;;;;5094929;28;20024;-59
2022/12/29 07:04:44;;;;;;;2.08;0.90;;;;;;;;;;5105876;28;20462;-54
2022/12/29 07:07:10;;;;;;;2.28;1.10;;;;;;;;;;5100518;28;20127;-51
2022/12/29 07:09:35;;;;;;;1.33;0.90;;;;;;;;;;5094331;28;20097;-57
2022/12/29 07:12:01;;;;;;;5.88;1.58;;;;;;;;;;5095771;28;20063;-52
2022/12/29 07:14:26;;;;;;;2.30;0.80;;;;;;;;;;5094303;28;20111;-53
2022/12/29 07:16:52;;;;;;;3.88;1.17;;;;;;;;;;5102937;28;20023;-55
2022/12/29 07:19:17;;;;;;;0.88;0.82;;;;;;;;;;5098516;28;20432;-56
2022/12/29 07:21:43;;;;;;;4.20;1.10;;;;;;;;;;5092239;28;20038;-56
2022/12/29 07:24:09;;;;;;;1.98;1.02;;;;;;;;;;5075612;28;20046;-58
2022/12/29 07:26:36;;;;;;;2.35;1.30;;;;;;;;;;5099607;28;20044;-55
2022/12/29 07:29:02;;;;;;;3.47;1.30;;;;;;;;;;5109748;28;20032;-52
2022/12/29 07:31:27;;;;;;;2.95;1.00;;;;;;;;;;5108687;28;20165;-57
2022/12/29 07:33:52;;;;;;;3.20;1.30;;;;;;;;;;5096133;28;20481;-54
2022/12/29 07:36:18;;;;;;;2.53;1.38;;;;;;;;;;5108097;28;20028;-58
2022/12/29 07:38:44;;;;;;;1.83;1.20;;;;;;;;;;5111960;28;20054;-52
2022/12/29 07:41:09;;;;;;;1.33;0.90;;;;;;;;;;5079466;28;20032;-50
2022/12/29 07:43:35;;;;;;;2.92;1.10;;;;;;;;;;5107781;28;20472;-55
2022/12/29 07:46:00;;;;;;;3.03;0.98;;;;;;;;;;5091036;28;20028;-54
2022/12/29 07:48:25;;;;;;;2.40;1.23;;;;;;;;;;5103353;28;20023;-54
2022/12/29 07:50:52;;;;;;;4.93;1.25;;;;;;;;;;5096148;28;20492;-54
2022/12/29 07:53:18;;;;;;;1.45;0.88;;;;;;;;;;5110414;28;20047;-58
2022/12/29 07:55:43;;;;;;;2.65;1.13;;;;;;;;;;5109606;28;20078;-55
2022/12/29 07:58:09;;;;;;;3.33;1.33;;;;;;;;;;5098903;28;20058;-54
2022/12/29 08:00:34;;;;;;;5.30;1.48;;;;;;;;;;5100822;28;20149;-54
2022/12/29 08:03:00;;;;;;;3.25;1.13;;;;;;;;;;5097042;28;20106;-53
2022/12/29 08:05:25;;;;;;;2.03;1.10;;;;;;;;;;5101373;28;20034;-52
2022/12/29 08:07:51;;;;;;;6.43;1.20;;;;;;;;;;5091481;28;20039;-50
2022/12/29 08:10:16;;;;;;;4.57;1.48;;;;;;;;;;5102801;28;20088;-55
2022/12/29 08:12:43;;;;;;;3.88;1.02;;;;;;;;;;5111630;28;20031;-58
2022/12/29 08:15:11;;;;;;;2.47;0.75;;;;;;;;;;5100130;28;20058;-54
2022/12/29 08:17:36;;;;;;;1.52;0.98;;;;;;;;;;5092925;28;20387;-51
2022/12/29 08:20:02;;;;;;;4.40;1.00;;;;;;;;;;5109657;28;20111;-55
2022/12/29 08:22:28;;;;;;;2.13;1.00;;;;;;;;;;5110971;28;20058;-54
2022/12/29 08:24:53;;;;;;;2.50;1.08;;;;;;;;;;5110820;28;20472;-53
2022/12/29 08:27:19;;;;;;;2.40;1.30;;;;;;;;;;5112451;28;20027;-55
2022/12/29 08:29:44;;;;;;;3.22;1.13;;;;;;;;;;5105524;28;20035;-55
2022/12/29 08:32:10;;;;;;;3.50;1.30;;;;;;;;;;5103510;28;20080;-53
2022/12/29 08:34:36;;;;;;;5.22;1.30;;;;;;;;;;5094053;28;20042;-54
2022/12/29 08:37:01;;;;;;;4.25;1.17;;;;;;;;;;5092962;28;20115;-57
2022/12/29 08:39:27;;;;;;;3.15;1.10;;;;;;;;;;5092272;28;20043;-55
2022/12/29 08:41:53;;;;;;;3.47;1.23;;;;;;;;;;5114785;28;20031;-51
2022/12/29 08:44:18;;;;;;;6.20;1.00;;;;;;;;;;5116561;28;20038;-55
2022/12/29 08:46:43;;;;;;;4.68;1.17;;;;;;;;;;5115606;28;20124;-60
2022/12/29 08:49:09;;;;;;;3.65;1.20;;;;;;;;;;5098304;28;20028;-53
2022/12/29 08:51:34;;;;;;;4.80;1.45;;;;;;;;;;5111291;28;20037;-58
2022/12/29 08:54:00;;;;;;;4.28;1.40;;;;;;;;;;5114962;28;20029;-53
2022/12/29 08:56:26;;;;;;;4.35;1.30;;;;;;;;;;5115096;28;20035;-58
2022/12/29 08:58:52;;;;;;;4.85;1.33;;;;;;;;;;5114162;28;20051;-54
2022/12/29 09:01:17;;;;;;;6.03;1.30;;;;;;;;;;5113689;28;20036;-56
2022/12/29 09:03:43;;;;;;;5.85;1.35;;;;;;;;;;5116114;28;20020;-62
2022/12/29 09:06:08;;;;;;;9.82;1.40;;;;;;;;;;5096351;28;20047;-61
2022/12/29 09:08:34;;;;;;;7.07;1.42;;;;;;;;;;5097542;28;20035;-61
2022/12/29 09:11:12;;;;;;;4.55;1.10;;;;;;;;;;5105208;28;20412;-60
2022/12/29 09:13:38;;;;;;;2.47;1.05;;;;;;;;;;5094480;28;20059;-61
2022/12/29 09:16:04;;;;;;;3.92;1.30;;;;;;;;;;5096030;28;20051;-59
2022/12/29 09:18:30;;;;;;;4.57;1.30;;;;;;;;;;5087657;28;20043;-59
2022/12/29 09:21:00;;;;;;;3.35;0.95;;;;;;;;;;5111046;28;20051;-61
2022/12/29 09:23:26;;;;;;;3.72;1.27;;;;;;;;;;5111484;28;20024;-60
2022/12/29 09:25:52;;;;;;;2.88;1.27;;;;;;;;;;5114613;28;20040;-61
2022/12/29 09:28:17;;;;;;;1.80;0.90;;;;;;;;;;5099081;28;20104;-61
2022/12/29 09:30:43;;;;;;;4.72;1.05;;;;;;;;;;5094884;28;20036;-61
2022/12/29 09:33:08;;;;;;;5.70;1.38;;;;;;;;;;5109490;28;20027;-60
2022/12/29 09:35:34;;;;;;;3.38;1.13;;;;;;;;;;5115597;28;20139;-60
2022/12/29 09:37:59;;;;;;;7.03;1.30;;;;;;;;;;5114721;28;20023;-60
2022/12/29 09:40:30;;;;;;;5.35;1.25;;;;;;;;;;5099323;28;20028;-61
2022/12/29 09:43:09;;;;;;;5.13;1.15;;;;;;;;;;5106914;28;20122;-60
2022/12/29 09:45:44;;;;;;;3.70;1.17;;;;;;;;;;5095120;28;20114;-55
2022/12/29 09:48:33;;;;;;;6.25;1.45;;;;;;;;;;5085925;28;20055;-54
2022/12/29 09:51:03;;;;;;;3.95;1.20;;;;;;;;;;5094435;28;20032;-55
2022/12/29 09:53:49;;;;;;;3.85;1.02;;;;;;;;;;5106751;28;20035;-55
2022/12/29 09:56:21;;;;;;;3.42;1.55;;;;;;;;;;5082262;28;20036;-59
2022/12/29 09:59:02;;;;;;;5.07;1.42;;;;;;;;;;5099666;28;20109;-61
2022/12/29 10:01:33;;;;;;;3.88;1.17;;;;;;;;;;5105880;28;20023;-58
2022/12/29 10:03:59;;;;;;;;;;;;;;;;;;5114751;28;20055;-52
2022/12/29 10:06:31;;;;;;;4.22;1.10;;;;;;;;;;5113393;28;19911;-53
2022/12/29 10:09:06;;;;;;;4.05;1.13;;;;;;;;;;5113549;28;20502;-53
2022/12/29 10:11:50;;;;;;;4.28;1.20;;;;;;;;;;5092253;28;20028;-52
2022/12/29 10:14:51;;;;;;;4.95;1.27;;;;;;;;;;5095039;28;20456;-52
2022/12/29 10:17:36;;;;;;;6.78;1.70;;;;;;;;;;5086620;28;20067;-55
2022/12/29 10:20:21;;;;;;;4.13;1.10;;;;;;;;;;5107106;28;20107;-52
2022/12/29 10:23:03;;;;;;;3.92;1.20;;;;;;;;;;5073046;28;20044;-59
2022/12/29 10:25:33;;;;;;;7.90;1.38;;;;;;;;;;5096316;28;20062;-54
2022/12/29 10:28:03;;;;;;;4.05;1.02;;;;;;;;;;5096067;28;20487;-53
2022/12/29 10:30:29;;;;;;;6.35;1.20;;;;;;;;;;5094603;28;20349;-54
2022/12/29 10:32:58;;;;;;;3.78;1.17;;;;;;;;;;5096421;28;20545;-56
2022/12/29 10:35:26;;;;;;;3.13;1.00;;;;;;;;;;5114521;28;20100;-55
2022/12/29 10:38:29;;;;;;;7.88;1.40;;;;;;;;;;5095221;28;20539;-56
2022/12/29 10:41:16;;;;;;;5.43;1.25;;;;;;;;;;5091202;28;20027;-56
2022/12/29 10:43:45;;;;;;;4.03;1.20;;;;;;;;;;5093730;28;20043;-56
2022/12/29 10:46:14;;;;;;;6.20;1.30;;;;;;;;;;5092720;28;20157;-56
2022/12/29 10:48:39;;;;;;;2.80;0.73;;;;;;;;;;5096326;28;20472;-55
2022/12/29 10:51:07;;;;;;;7.82;1.25;;;;;;;;;;5108569;28;20038;-51
2022/12/29 10:53:43;;;;;;;2.80;1.02;;;;;;;;;;5113727;28;20353;-53
2022/12/29 10:56:53;;;;;;;4.55;1.00;;;;;;;;;;5112944;28;20104;-53
2022/12/29 10:59:26;;;;;;;5.22;1.25;;;;;;;;;;5081908;28;20047;-52
2022/12/29 11:02:06;;;;;;;5.13;1.42;;;;;;;;;;5086896;28;20032;-60
2022/12/29 11:04:50;;;;;;;7.28;1.20;;;;;;;;;;5089089;28;20530;-54
2022/12/29 11:07:18;;;;;;;2.50;0.88;;;;;;;;;;5088526;28;20089;-51
2022/12/29 11:09:45;;;;;;;5.30;1.25;;;;;;;;;;5092819;28;20032;-55
2022/12/29 11:12:23;;;;;;;4.10;1.40;;;;;;;;;;5091914;28;20472;-56
2022/12/29 11:15:09;;;;;;;3.00;1.20;;;;;;;;;;5091335;28;20077;-55
2022/12/29 11:17:52;;;;;;;6.15;1.30;;;;;;;;;;5082634;28;20435;-54
2022/12/29 11:20:37;;;;;;;4.32;1.10;;;;;;;;;;5092157;28;20055;-54
2022/12/29 11:23:05;;;;;;;1.83;0.95;;;;;;;;;;5074041;28;20028;-55
2022/12/29 11:25:31;;;;;;;4.57;1.00;;;;;;;;;;5092813;28;20085;-52
2022/12/29 11:28:14;;;;;;;5.68;1.63;;;;;;;;;;5092038;28;20028;-53
2022/12/29 11:30:40;;;;;;;5.32;1.23;;;;;;;;;;5092709;28;20115;-56
2022/12/29 11:33:06;;;;;;;6.75;1.30;;;;;;;;;;5091931;28;20111;-54
2022/12/29 11:35:31;;;;;;;4.10;1.20;;;;;;;;;;5058065;28;20035;-55
2022/12/29 11:37:58;;;;;;;7.93;1.40;;;;;;;;;;5085076;28;20028;-60
2022/12/29 11:40:25;;;;;;;7.07;1.15;;;;;;;;;;5089443;28;20035;-60
2022/12/29 11:43:03;;;;;;;6.40;1.40;;;;;;;;;;5078909;28;20407;-56
2022/12/29 11:45:34;;;;;;;3.72;1.13;;;;;;;;;;5088049;28;20024;-57
2022/12/29 11:48:09;;;;;;;2.78;0.90;;;;;;;;;;5089785;28;20055;-54
2022/12/29 11:50:39;;;;;;;6.38;1.30;;;;;;;;;;5084431;28;20077;-56
2022/12/29 11:53:18;;;;;;;4.72;1.40;;;;;;;;;;5078795;28;20028;-53
2022/12/29 11:56:08;;;;;;;3.78;1.20;;;;;;;;;;5083216;28;20044;-54
2022/12/29 11:58:36;;;;;;;7.18;1.50;;;;;;;;;;5079400;28;20055;-54
2022/12/29 12:01:38;;;;;;;5.75;1.55;;;;;;;;;;5081582;28;20032;-57
2022/12/29 12:04:13;;;;;;;9.73;1.48;;;;;;;;;;5103954;28;20031;-56
2022/12/29 12:06:58;;;;;;;3.55;1.25;;;;;;;;;;5095409;28;20032;-56
2022/12/29 12:09:54;;;;;;;3.28;1.00;;;;;;;;;;5112698;28;20070;-55
2022/12/29 12:12:28;;;;;;;6.00;1.13;;;;;;;;;;5095383;28;20062;-54
2022/12/29 12:15:00;;;;;;;2.67;1.10;;;;;;;;;;5109339;28;20049;-58
2022/12/29 12:17:37;;;;;;;3.70;1.23;;;;;;;;;;5103973;28;20028;-53
2022/12/29 12:20:17;;;;;;;4.35;1.30;;;;;;;;;;5101284;28;20107;-56
2022/12/29 12:23:08;;;;;;;3.28;1.40;;;;;;;;;;5111964;28;20023;-52
2022/12/29 12:26:04;;;;;;;6.32;1.30;;;;;;;;;;5110119;28;20480;-57
2022/12/29 12:28:58;;;;;;;4.25;1.05;;;;;;;;;;5078524;28;20487;-56
2022/12/29 12:31:49;;;;;;;2.05;0.90;;;;;;;;;;5111674;28;20464;-55
2022/12/29 12:34:32;;;;;;;4.93;1.35;;;;;;;;;;5092463;28;20045;-56
2022/12/29 12:37:26;;;;;;;6.22;1.70;;;;;;;;;;5086772;28;20039;-59
2022/12/29 12:39:55;;;;;;;4.00;1.40;;;;;;;;;;5079540;28;20031;-53
2022/12/29 12:42:41;;;;;;;1.98;0.88;;;;;;;;;;5111481;28;20024;-53
2022/12/29 12:45:39;;;;;;;4.72;1.40;;;;;;;;;;5091636;28;20035;-56
2022/12/29 12:48:24;;;;;;;2.92;0.98;;;;;;;;;;5092680;28;20020;-56
2022/12/29 12:51:17;;;;;;;8.75;1.50;;;;;;;;;;5111566;28;20425;-55
2022/12/29 12:54:01;;;;;;;2.88;1.10;;;;;;;;;;5092788;28;20031;-56
2022/12/29 12:56:26;;;;;;;6.43;1.42;;;;;;;;;;5088237;28;20062;-56
2022/12/29 12:59:12;;;;;;;7.25;1.30;;;;;;;;;;5106566;28;20473;-54
2022/12/29 13:02:01;;;;;;;4.65;1.40;;;;;;;;;;5090490;28;20036;-51
2022/12/29 13:04:52;;;;;;;3.67;1.20;;;;;;;;;;5094234;28;20028;-55
2022/12/29 13:07:25;;;;;;;3.67;1.15;;;;;;;;;;5106082;28;20258;-53
2022/12/29 13:10:06;;;;;;;4.60;1.10;;;;;;;;;;5085142;28;20082;-56
2022/12/29 13:12:38;;;;;;;3.65;1.30;;;;;;;;;;5111818;28;20493;-57
2022/12/29 13:15:39;;;;;;;8.68;1.30;;;;;;;;;;5088815;28;20422;-56
2022/12/29 13:18:18;;;;;;;6.63;1.63;;;;;;;;;;5069989;28;20055;-55
2022/12/29 13:20:57;;;;;;;6.55;1.45;;;;;;;;;;5101531;28;20063;-55
2022/12/29 13:23:27;;;;;;;5.38;1.30;;;;;;;;;;5110862;28;20089;-56
2022/12/29 13:26:05;;;;;;;2.33;1.15;;;;;;;;;;5111572;28;20032;-54
2022/12/29 13:28:42;;;;;;;6.80;1.40;;;;;;;;;;5116064;28;20040;-54
2022/12/29 13:31:17;;;;;;;5.65;1.27;;;;;;;;;;5099884;28;20093;-55
2022/12/29 13:33:58;;;;;;;5.88;1.20;;;;;;;;;;5102268;28;20027;-52
2022/12/29 13:36:43;;;;;;;2.63;1.00;;;;;;;;;;5110052;28;20024;-53
2022/12/29 13:39:18;;;;;;;5.97;1.60;;;;;;;;;;5108114;28;20395;-55
2022/12/29 13:41:49;;;;;;;4.30;1.08;;;;;;;;;;5114081;28;20027;-55
2022/12/29 13:44:23;;;;;;;7.80;1.40;;;;;;;;;;5096106;28;20490;-55
2022/12/29 13:46:49;;;;;;;6.93;1.50;;;;;;;;;;5112375;28;20034;-54
2022/12/29 13:49:22;;;;;;;5.05;1.27;;;;;;;;;;5106481;28;20055;-55
2022/12/29 13:52:46;;;;;;;3.53;1.15;;;;;;;;;;5094454;28;20454;-52
2022/12/29 13:55:34;;;;;;;5.40;1.20;;;;;;;;;;5064289;28;20039;-55
2022/12/29 13:58:10;;;;;;;7.63;1.67;;;;;;;;;;5051472;28;20052;-57
2022/12/29 14:00:53;;;;;;;3.42;1.02;;;;;;;;;;5080578;28;20054;-56
2022/12/29 14:03:54;;;;;;;6.78;1.45;;;;;;;;;;5085603;28;20078;-56
2022/12/29 14:06:24;;;;;;;6.18;1.77;;;;;;;;;;5075524;28;20107;-57
2022/12/29 14:08:52;;;;;;;4.32;1.10;;;;;;;;;;5104846;28;20035;-56
2022/12/29 14:11:22;;;;;;;4.28;1.08;;;;;;;;;;5098483;28;20093;-56
2022/12/29 14:13:48;;;;;;;6.15;1.30;;;;;;;;;;5107779;28;20032;-56
2022/12/29 14:16:29;;;;;;;4.90;1.30;;;;;;;;;;5113356;28;20106;-56
2022/12/29 14:18:57;;;;;;;2.97;1.08;;;;;;;;;;5095348;28;20031;-57
2022/12/29 14:21:29;;;;;;;4.65;1.20;;;;;;;;;;5097832;28;20069;-57
2022/12/29 14:24:20;;;;;;;5.38;1.40;;;;;;;;;;5081067;28;20399;-55
2022/12/29 14:26:46;;;;;;;6.00;1.17;;;;;;;;;;5090207;28;20106;-57
2022/12/29 14:29:23;;;;;;;4.28;1.50;;;;;;;;;;5094843;28;20553;-57
2022/12/29 14:31:49;;;;;;;4.68;1.17;;;;;;;;;;5104978;28;20045;-56
2022/12/29 14:34:18;;;;;;;3.50;1.00;;;;;;;;;;5094982;28;20464;-58
2022/12/29 14:37:01;;;;;;;7.07;1.25;;;;;;;;;;5100684;28;20028;-57
2022/12/29 14:39:42;;;;;;;5.30;1.15;;;;;;;;;;5103208;28;20495;-58
2022/12/29 14:42:12;;;;;;;4.90;1.58;;;;;;;;;;5080291;28;20040;-53
2022/12/29 14:45:03;;;;;;;5.43;1.42;;;;;;;;;;5112532;28;20151;-58
2022/12/29 14:47:36;;;;;;;6.80;1.38;;;;;;;;;;5104952;28;20090;-56
2022/12/29 14:50:07;;;;;;;4.53;1.45;;;;;;;;;;5094627;28;20032;-60
2022/12/29 14:53:01;;;;;;;5.18;1.20;;;;;;;;;;5109748;28;20142;-58
2022/12/29 14:55:51;;;;;;;5.72;1.30;;;;;;;;;;5096794;28;20056;-60
2022/12/29 14:58:21;;;;;;;3.25;1.23;;;;;;;;;;5094935;28;20078;-57
2022/12/29 15:00:49;;;;;;;8.27;1.73;;;;;;;;;;5093019;28;20028;-57
2022/12/29 15:03:24;;;;;;;8.02;1.50;;;;;;;;;;5100305;28;20040;-55
2022/12/29 15:05:54;;;;;;;8.25;1.80;;;;;;;;;;5113548;28;20111;-57
2022/12/29 15:08:25;;;;;;;6.32;1.52;;;;;;;;;;5112111;28;20032;-56
2022/12/29 15:10:58;;;;;;;5.15;1.50;;;;;;;;;;5114032;28;20046;-57
2022/12/29 15:13:34;;;;;;;6.30;1.60;;;;;;;;;;5092440;28;20597;-57
2022/12/29 15:16:20;;;;;;;8.60;1.65;;;;;;;;;;5113524;28;20035;-57
2022/12/29 15:18:45;;;;;;;4.97;1.42;;;;;;;;;;5112222;28;20035;-57
2022/12/29 15:21:14;;;;;;;3.35;1.55;;;;;;;;;;5112639;28;20027;-56
2022/12/29 15:23:43;;;;;;;3.47;1.20;;;;;;;;;;5112702;28;20031;-59
2022/12/29 15:26:10;;;;;;;3.63;1.40;;;;;;;;;;5112522;28;20028;-60
2022/12/29 15:28:45;;;;;;;3.65;1.45;;;;;;;;;;5100140;28;20153;-54
2022/12/29 15:31:24;;;;;;;4.55;1.35;;;;;;;;;;5091554;28;20039;-56
2022/12/29 15:33:55;;;;;;;8.85;1.75;;;;;;;;;;5107533;28;20468;-57
2022/12/29 15:36:21;;;;;;;3.60;0.93;;;;;;;;;;5105466;28;20071;-57
2022/12/29 15:38:48;;;;;;;3.67;1.33;;;;;;;;;;5096071;28;20039;-56
2022/12/29 15:41:26;;;;;;;5.15;1.08;;;;;;;;;;5111765;28;20036;-58